スヴァールバル空港の過去48時間の天気

スヴァールバル空港 (Svalbard Lufthavn)

現在時刻: 1/23 04:26 CET (1/23 03:26 UTC) 以下の時間は現地時間です。

過去48時間のMETAR気象情報
時間 風向 風速(m/s) 視程 気温(℃) 湿度(%) 気圧(hPa) 天気現象
23 03:50 南東 8 10km以上 -14 55 1009
23 02:50 南南東 5 10km以上 -15 55 1010
23 01:50 東南東 3 10km以上 -16 60 1011
23 00:50 東南東 8 10km以上 -18 59 1011
22 23:50 東南東 8 10km以上 -18 59 1012
22 22:50 東南東 6 10km以上 -18 59 1012
22 21:50 東南東 6 10km以上 -19 65 1012
22 20:50 東南東 5 10km以上 -19 77 1012
22 19:50 東南東 7 10km以上 -20 84 1013
22 18:50 東南東 6 10km以上 -20 77 1013
22 18:20 東南東 5 10km以上 -20 77 1013
22 17:50 東南東 4 10km以上 -19 77 1013
22 17:20 東南東 4 10km以上 -18 71 1013
22 16:50 東南東 5 10km以上 -18 77 1013
22 16:20 東南東 6 10km以上 -18 77 1013
22 15:50 東南東 5 10km以上 -18 77 1013
22 15:20 東南東 5 10km以上 -17 71 1013
22 14:50 東南東 4 10km以上 -18 77 1013
22 14:20 東南東 4 10km以上 -18 84 1013
22 13:50 東南東 4 10km以上 -17 65 1013
22 13:20 東南東 5 10km以上 -18 77 1012
22 12:50 東南東 4 10km以上 -16 71 1012
22 12:20 南南東 3 10km以上 -17 65 1012
22 11:50 南東 4 10km以上 -17 65 1012
22 11:20 東南東 3 10km以上 -17 71 1011
22 10:50 東南東 2 10km以上 -17 77 1011
22 10:20 3 10km以上 -16 71 1011
22 09:50 東南東 3 10km以上 -17 71 1011
22 09:20 2 10km以上 -17 77 1010
22 08:50 東南東 2 10km以上 -18 71 1010
22 08:20 2 10km以上 -17 77 1010
22 07:50 不定 2 10km以上 -16 78 1010
22 06:50 南東 2 10km以上 -15 66 1009
22 06:20 不定 1 10km以上 -15 66 1009
22 05:50 南東 2 10km以上 -15 66 1009
22 05:20 不定 1 10km以上 -14 60 1009
22 04:50 南南東 2 10km以上 -15 66 1009
22 04:20 東南東 2 10km以上 -16 65 1008
22 03:50 北北東 5 10km以上 -14 60 1008
22 03:20 不定 1 10km以上 -14 60 1008
22 02:50 南東 3 10km以上 -15 60 1007
22 02:20 不定 1 10km以上 -15 66 1007
22 01:50 東北東 5 10km以上 -14 60 1007
22 01:20 北東 6 10km以上 -14 55 1006
22 00:50 東北東 4 10km以上 -14 60 1006
22 00:20 東北東 4 10km以上 -14 60 1006
21 23:50 東南東 2 10km以上 -15 60 1006
21 23:20 東北東 5 10km以上 -13 56 1005
21 22:50 北東 9 10km以上 -14 55 1005
21 22:20 3 10km以上 -14 60 1004
21 21:50 北東 4 10km以上 -13 56 1004
21 21:20 北東 6 10km以上 -13 61 1004
21 20:50 北東 9 10km以上 -13 61 1003
ENSB 230250Z 14016KT CAVOK M14/M21 Q1009 RMK WIND 1400FT 11014KT
ENSB 230150Z 15010KT CAVOK M15/M22 Q1010 RMK WIND 1400FT 15007KT
ENSB 230050Z 12006KT 080V190 CAVOK M16/M22 Q1011 RMK WIND 1400FT VRB02KT
ENSB 222350Z 11015KT CAVOK M18/M24 Q1011 RMK WIND 1400FT 14012KT
ENSB 222250Z 12016KT CAVOK M18/M24 Q1012 RMK WIND 1400FT 13013KT
ENSB 222150Z 12012KT CAVOK M18/M24 Q1012 RMK WIND 1400FT 14008KT
ENSB 222050Z 11012KT CAVOK M19/M24 Q1012 RMK WIND 1400FT 12014KT
ENSB 221950Z 11010KT CAVOK M19/M22 Q1012 RMK WIND 1400FT 14007KT
ENSB 221850Z 11013KT CAVOK M20/M22 Q1013 RMK WIND 1400FT 10011KT
ENSB 221750Z 11011KT CAVOK M20/M23 Q1013 RMK WIND 1400FT 07009KT
ENSB 221720Z 11009KT CAVOK M20/M23 Q1013 RMK WIND 1400FT 07007KT
ENSB 221650Z 11008KT CAVOK M19/M22 Q1013 RMK WIND 1400FT 10003KT
ENSB 221620Z 12007KT CAVOK M18/M22 Q1013 RMK WIND 1400FT 05003KT
ENSB 221550Z 11010KT CAVOK M18/M21 Q1013 RMK WIND 1400FT 06006KT
ENSB 221520Z 12011KT 9999 FEW025 M18/M21 Q1013 RMK WIND 1400FT 07006KT
ENSB 221450Z 11009KT 9999 FEW025 M18/M21 Q1013 RMK WIND 1400FT 12003KT
ENSB 221420Z 11009KT 9999 FEW025 M17/M21 Q1013 RMK WIND 1400FT 09005KT
ENSB 221350Z 12007KT 9999 FEW025 M18/M21 Q1013 NOSIG RMK WIND 1400FT 07004KT
ENSB 221320Z 12008KT 9999 FEW025 M18/M20 Q1013 NOSIG RMK WIND 1400FT VRB02KT
ENSB 221250Z 12007KT 9999 FEW025 M17/M22 Q1013 NOSIG RMK WIND 1400FT 07004KT
ENSB 221220Z 11010KT 9999 FEW025 M18/M21 Q1012 NOSIG RMK WIND 1400FT 05008KT
ENSB 221150Z 12007KT 9999 FEW025 M16/M20 Q1012 NOSIG RMK WIND 1400FT 05007KT
ENSB 221120Z 15006KT 9999 FEW025 M17/M22 Q1012 NOSIG RMK WIND 1400FT 06007KT
ENSB 221050Z 13007KT 080V150 9999 FEW025 M17/M22 Q1012 NOSIG RMK WIND 1400FT 03007KT
ENSB 221020Z 11005KT 9999 FEW025 M17/M21 Q1011 NOSIG RMK WIND 1400FT VRB02KT
ENSB 220950Z 12003KT 080V200 9999 FEW025 M17/M20 Q1011 NOSIG RMK WIND 1400FT 05003KT
ENSB 220920Z 10006KT 9999 SCT025 M16/M20 Q1011 NOSIG RMK WIND 1400FT 04005KT
ENSB 220850Z 12005KT 090V150 9999 SCT025 M17/M21 Q1011 NOSIG RMK WIND 1400FT 05007KT
ENSB 220820Z 10004KT 060V150 9999 FEW030 M17/M20 Q1010 NOSIG RMK WIND 1400FT 04008KT
ENSB 220750Z 11003KT 080V140 9999 FEW030 M18/M22 Q1010 NOSIG RMK WIND 1400FT 05008KT
ENSB 220720Z 10004KT 040V140 9999 SCT030 M17/M20 Q1010 NOSIG RMK WIND 1400FT 04008KT
ENSB 220650Z VRB03KT 9999 BKN025 M16/M19 Q1010 RMK WIND 1400FT 05005KT
ENSB 220550Z 14004KT 9999 BKN028 M15/M20 Q1009 RMK WIND 1400FT 04007KT
ENSB 220520Z VRB01KT 9999 FEW020 SCT030 M15/M20 Q1009 RMK WIND 1400FT 04006KT
ENSB 220450Z 14003KT 080V170 9999 FEW025 M15/M20 Q1009 RMK WIND 1400FT 05003KT
ENSB 220420Z VRB01KT 9999 FEW025 M14/M20 Q1009 RMK WIND 1400FT 02005KT
ENSB 220350Z 15004KT 060V180 9999 SCT025 M15/M20 Q1009 RMK WIND 1400FT 05005KT
ENSB 220320Z 11004KT 050V160 9999 SCT028 M16/M21 Q1008 RMK WIND 1400FT 03009KT
ENSB 220250Z 03009KT 9999 SCT030 M14/M20 Q1008 RMK WIND 1400FT 03008KT
ENSB 220220Z VRB01KT 9999 SCT030 M14/M20 Q1008 RMK WIND 1400FT 02010KT
ENSB 220150Z 13005KT 9999 SCT028 M15/M21 Q1007 RMK WIND 1400FT 05007KT
ENSB 220120Z VRB02KT 9999 SCT028 M15/M20 Q1007 RMK WIND 1400FT 04010KT
ENSB 220050Z 06010KT 9999 FEW030 M14/M20 Q1007 RMK WIND 1400FT 04011KT
ENSB 220020Z 05012KT 9999 FEW030 M14/M21 Q1006 RMK WIND 1400FT 05008KT
ENSB 212350Z 07008KT 040V100 9999 FEW030 M14/M20 Q1006 RMK WIND 1400FT 06007KT
ENSB 212320Z 07008KT 040V100 9999 FEW035 M14/M20 Q1006 RMK WIND 1400FT 07006KT
ENSB 212250Z 11004KT 060V170 9999 FEW035 M15/M21 Q1006 RMK WIND 1400FT 04010KT
ENSB 212220Z 07010KT 020V090 9999 FEW035 M13/M20 Q1005 RMK WIND 1400FT 06009KT
ENSB 212150Z 04017KT 9999 FEW035 M14/M21 Q1005 RMK WIND 1400FT 04014KT
ENSB 212120Z 08006KT 040V130 9999 FEW030 M14/M20 Q1004 RMK WIND 1400FT 04012KT
ENSB 212050Z 04007KT 010V080 9999 FEW030 M13/M20 Q1004 RMK WIND 1400FT 04012KT
ENSB 212020Z 05012KT 010V080 9999 FEW034 M13/M19 Q1004 RMK WIND 1400FT 03017KT
ENSB 211950Z 04017KT 9999 FEW034 M13/M19 Q1003 RMK WIND 1400FT 03014KT